Time;durP1;ratioP1;P1;durP2;ratioP2;P2;SDS_P1;SDS_P2;PMS_P1;PMS_P2;Temp;Humidity;BMP_temperature;BMP_pressure;BME280_temperature;BME280_humidity;BME280_pressure;Samples;Min_cycle;Max_cycle;Signal;HPM_P1;HPM_P2
2023/06/17 00:01:50;;;;;;;5.22;4.13;;;;;;;;;;5054931;28;20048;-63
2023/06/17 00:04:15;;;;;;;4.90;4.47;;;;;;;;;;5054985;28;20485;-64
2023/06/17 00:06:44;;;;;;;7.45;4.32;;;;;;;;;;5054829;28;20111;-63
2023/06/17 00:09:09;;;;;;;5.53;4.72;;;;;;;;;;5054879;28;20021;-63
2023/06/17 00:11:35;;;;;;;4.55;4.15;;;;;;;;;;5054423;28;20059;-63
2023/06/17 00:14:01;;;;;;;5.53;4.95;;;;;;;;;;5054482;28;20021;-62
2023/06/17 00:16:26;;;;;;;5.43;4.50;;;;;;;;;;5054391;28;20029;-63
2023/06/17 00:18:53;;;;;;;4.50;4.10;;;;;;;;;;5054473;28;20392;-63
2023/06/17 00:21:19;;;;;;;4.93;4.43;;;;;;;;;;5054546;28;20021;-63
2023/06/17 00:23:45;;;;;;;5.38;3.97;;;;;;;;;;5054605;28;20021;-63
2023/06/17 00:26:10;;;;;;;5.30;4.80;;;;;;;;;;5054226;28;20043;-63
2023/06/17 00:28:36;;;;;;;4.82;4.40;;;;;;;;;;5054256;28;20021;-63
2023/06/17 00:31:02;;;;;;;4.53;4.13;;;;;;;;;;5054263;28;20021;-63
2023/06/17 00:33:27;;;;;;;5.72;4.63;;;;;;;;;;5054068;28;20473;-63
2023/06/17 00:35:53;;;;;;;5.57;4.82;;;;;;;;;;5054058;28;20056;-63
2023/06/17 00:38:18;;;;;;;5.20;4.70;;;;;;;;;;5054086;28;20025;-63
2023/06/17 00:40:44;;;;;;;5.95;4.32;;;;;;;;;;5053940;28;20025;-63
2023/06/17 00:43:09;;;;;;;4.60;4.20;;;;;;;;;;5053966;28;20041;-63
2023/06/17 00:45:38;;;;;;;5.40;4.30;;;;;;;;;;5053900;28;20031;-63
2023/06/17 00:48:08;;;;;;;5.03;4.53;;;;;;;;;;5054216;28;20032;-63
2023/06/17 00:50:36;;;;;;;;;;;;;;;;;;5054229;28;20037;-63
2023/06/17 00:53:02;;;;;;;5.07;4.50;;;;;;;;;;5053682;28;19912;-62
2023/06/17 00:55:28;;;;;;;5.65;4.30;;;;;;;;;;5053755;28;20029;-63
2023/06/17 00:57:57;;;;;;;5.05;4.13;;;;;;;;;;5053628;28;20028;-64
2023/06/17 01:00:23;;;;;;;4.60;3.97;;;;;;;;;;5053622;28;20044;-64
2023/06/17 01:02:49;;;;;;;5.38;4.40;;;;;;;;;;5053840;28;20037;-63
2023/06/17 01:05:17;;;;;;;4.78;4.20;;;;;;;;;;5053553;28;20487;-63
2023/06/17 01:08:02;;;;;;;5.25;4.18;;;;;;;;;;5053456;28;20040;-63
2023/06/17 01:10:36;;;;;;;6.10;4.35;;;;;;;;;;5053811;28;20035;-64
2023/06/17 01:13:04;;;;;;;5.57;4.28;;;;;;;;;;5053725;28;20032;-64
2023/06/17 01:15:36;;;;;;;4.70;4.28;;;;;;;;;;5053731;28;20033;-64
2023/06/17 01:18:07;;;;;;;4.90;3.95;;;;;;;;;;5053336;28;20068;-65
2023/06/17 01:20:32;;;;;;;5.22;4.60;;;;;;;;;;5053352;28;20032;-64
2023/06/17 01:22:59;;;;;;;4.40;4.00;;;;;;;;;;5053769;28;20028;-64
2023/06/17 01:25:29;;;;;;;6.40;4.10;;;;;;;;;;5053361;28;20048;-65
2023/06/17 01:27:59;;;;;;;6.37;4.33;;;;;;;;;;5052521;28;20095;-64
2023/06/17 01:30:28;;;;;;;4.90;4.40;;;;;;;;;;5053563;28;20522;-65
2023/06/17 01:32:55;;;;;;;4.60;3.88;;;;;;;;;;5052875;28;20074;-64
2023/06/17 01:35:23;;;;;;;4.97;4.13;;;;;;;;;;5053091;28;20283;-64
2023/06/17 01:37:59;;;;;;;5.72;4.60;;;;;;;;;;5053221;28;20029;-63
2023/06/17 01:40:26;;;;;;;4.53;4.13;;;;;;;;;;5052985;28;20103;-64
2023/06/17 01:42:53;;;;;;;4.65;4.25;;;;;;;;;;5052940;28;20467;-64
2023/06/17 01:45:19;;;;;;;4.72;4.30;;;;;;;;;;5052901;28;20032;-64
2023/06/17 01:47:46;;;;;;;4.47;4.07;;;;;;;;;;5052856;28;20505;-64
2023/06/17 01:50:12;;;;;;;4.85;4.40;;;;;;;;;;5052820;28;20029;-65
2023/06/17 01:52:37;;;;;;;4.40;4.00;;;;;;;;;;5051458;28;20392;-63
2023/06/17 01:55:04;;;;;;;4.60;4.20;;;;;;;;;;5053010;28;20033;-64
2023/06/17 01:57:30;;;;;;;4.50;4.10;;;;;;;;;;5052581;28;20052;-64
2023/06/17 01:59:56;;;;;;;5.50;4.40;;;;;;;;;;5052865;28;20056;-64
2023/06/17 02:02:22;;;;;;;4.68;4.10;;;;;;;;;;5052598;28;20025;-64
2023/06/17 02:04:48;;;;;;;4.82;4.35;;;;;;;;;;5052850;28;20036;-64
2023/06/17 02:07:17;;;;;;;4.78;4.28;;;;;;;;;;5052743;28;20025;-64
2023/06/17 02:09:43;;;;;;;4.15;3.83;;;;;;;;;;5052484;28;20029;-65
2023/06/17 02:12:09;;;;;;;4.45;4.07;;;;;;;;;;5052261;28;20029;-64
2023/06/17 02:14:35;;;;;;;4.50;4.10;;;;;;;;;;5052678;28;20085;-65
2023/06/17 02:17:00;;;;;;;5.40;4.28;;;;;;;;;;5052307;28;20377;-64
2023/06/17 02:19:28;;;;;;;4.97;4.07;;;;;;;;;;5052595;28;20036;-63
2023/06/17 02:21:55;;;;;;;6.35;4.25;;;;;;;;;;5052327;28;20458;-64
2023/06/17 02:24:21;;;;;;;4.57;4.18;;;;;;;;;;5052294;28;20087;-64
2023/06/17 02:26:49;;;;;;;4.78;4.38;;;;;;;;;;5052170;28;20029;-63
2023/06/17 02:29:15;;;;;;;5.18;4.00;;;;;;;;;;5052292;28;20032;-64
2023/06/17 02:31:41;;;;;;;4.82;4.43;;;;;;;;;;5051853;28;20089;-64
2023/06/17 02:34:07;;;;;;;4.53;4.13;;;;;;;;;;5052237;28;20033;-64
2023/06/17 02:36:33;;;;;;;4.40;4.00;;;;;;;;;;5052417;28;20017;-63
2023/06/17 02:38:59;;;;;;;5.43;4.38;;;;;;;;;;5054769;28;20094;-63
2023/06/17 02:41:26;;;;;;;5.00;4.18;;;;;;;;;;5056236;28;20036;-64
2023/06/17 02:43:51;;;;;;;5.68;4.40;;;;;;;;;;5056238;28;20131;-63
2023/06/17 02:46:17;;;;;;;5.50;4.50;;;;;;;;;;5056193;28;20104;-64
2023/06/17 02:48:42;;;;;;;4.93;4.22;;;;;;;;;;5054912;28;20106;-63
2023/06/17 02:51:09;;;;;;;4.30;3.90;;;;;;;;;;5056332;28;20029;-64
2023/06/17 02:53:34;;;;;;;5.07;4.10;;;;;;;;;;5056337;28;20431;-64
2023/06/17 02:56:00;;;;;;;4.75;4.28;;;;;;;;;;5056262;28;20025;-64
2023/06/17 02:58:26;;;;;;;4.60;4.20;;;;;;;;;;5056245;28;20063;-63
2023/06/17 03:00:55;;;;;;;3.80;3.50;;;;;;;;;;5054681;28;20534;-63
2023/06/17 03:03:33;;;;;;;4.38;3.97;;;;;;;;;;5056183;28;20071;-64
2023/06/17 03:06:05;;;;;;;4.30;3.90;;;;;;;;;;5055910;28;20033;-63
2023/06/17 03:08:36;;;;;;;4.57;4.18;;;;;;;;;;5055728;28;20583;-64
2023/06/17 03:11:02;;;;;;;4.47;4.03;;;;;;;;;;5056112;28;20385;-63
2023/06/17 03:13:28;;;;;;;5.15;4.03;;;;;;;;;;5055635;28;20029;-64
2023/06/17 03:15:55;;;;;;;4.72;4.32;;;;;;;;;;5055696;28;20036;-64
2023/06/17 03:18:23;;;;;;;4.63;4.13;;;;;;;;;;5055610;28;20052;-63
2023/06/17 03:20:50;;;;;;;4.32;3.92;;;;;;;;;;5055602;28;20037;-64
2023/06/17 03:23:16;;;;;;;5.57;4.00;;;;;;;;;;5055489;28;20029;-64
2023/06/17 03:25:42;;;;;;;4.60;4.13;;;;;;;;;;5056116;28;20427;-64
2023/06/17 03:28:08;;;;;;;4.47;4.07;;;;;;;;;;5055434;28;20564;-66
2023/06/17 03:30:34;;;;;;;4.40;4.00;;;;;;;;;;5055402;28;20108;-63
2023/06/17 03:33:00;;;;;;;4.90;4.38;;;;;;;;;;5055088;28;20501;-63
2023/06/17 03:35:26;;;;;;;4.45;3.92;;;;;;;;;;5055634;28;20021;-65
2023/06/17 03:37:52;;;;;;;5.82;4.00;;;;;;;;;;5055198;28;20021;-63
2023/06/17 03:40:17;;;;;;;4.38;3.97;;;;;;;;;;5055222;28;20496;-64
2023/06/17 03:42:43;;;;;;;4.60;4.20;;;;;;;;;;5055117;28;20036;-64
2023/06/17 03:45:09;;;;;;;4.82;4.38;;;;;;;;;;5055160;28;20279;-63
2023/06/17 03:47:35;;;;;;;4.43;4.03;;;;;;;;;;5055017;28;20075;-63
2023/06/17 03:50:01;;;;;;;6.80;4.20;;;;;;;;;;5054295;28;20113;-64
2023/06/17 03:52:26;;;;;;;4.40;4.00;;;;;;;;;;5054927;28;20108;-64
2023/06/17 03:54:53;;;;;;;4.50;4.10;;;;;;;;;;5054867;28;20075;-64
2023/06/17 03:57:19;;;;;;;4.88;4.40;;;;;;;;;;5052794;28;20056;-66
2023/06/17 03:59:45;;;;;;;4.40;4.00;;;;;;;;;;5044920;28;20421;-64
2023/06/17 04:02:11;;;;;;;4.57;4.18;;;;;;;;;;5049641;28;20067;-64
2023/06/17 04:04:36;;;;;;;6.78;4.28;;;;;;;;;;5054649;28;20021;-64
2023/06/17 04:07:02;;;;;;;4.82;4.43;;;;;;;;;;5053211;28;20021;-63
2023/06/17 04:09:28;;;;;;;4.32;3.92;;;;;;;;;;5053920;28;20369;-66
2023/06/17 04:11:53;;;;;;;5.35;3.80;;;;;;;;;;5053666;28;20017;-63
2023/06/17 04:14:19;;;;;;;4.18;3.80;;;;;;;;;;5054459;28;20029;-64
2023/06/17 04:16:44;;;;;;;4.35;3.90;;;;;;;;;;5054392;28;20267;-64
2023/06/17 04:19:13;;;;;;;4.45;4.05;;;;;;;;;;5055007;28;20025;-64
2023/06/17 04:21:40;;;;;;;4.50;4.10;;;;;;;;;;5054544;28;20032;-64
2023/06/17 04:24:05;;;;;;;4.57;4.03;;;;;;;;;;5054587;28;20025;-63
2023/06/17 04:26:31;;;;;;;4.60;4.18;;;;;;;;;;5053404;28;20501;-63
2023/06/17 04:28:56;;;;;;;4.50;4.10;;;;;;;;;;5054218;28;20090;-63
2023/06/17 04:31:22;;;;;;;4.43;4.03;;;;;;;;;;5053957;28;20041;-62
2023/06/17 04:33:48;;;;;;;5.50;4.40;;;;;;;;;;5051393;28;20029;-66
2023/06/17 04:36:17;;;;;;;4.13;3.78;;;;;;;;;;5052281;28;20021;-63
2023/06/17 04:38:44;;;;;;;4.40;3.92;;;;;;;;;;5051248;28;20044;-65
2023/06/17 04:41:10;;;;;;;4.03;3.72;;;;;;;;;;5051493;28;20465;-63
2023/06/17 04:43:38;;;;;;;4.50;4.10;;;;;;;;;;5050579;28;20029;-63
2023/06/17 04:46:04;;;;;;;4.63;4.22;;;;;;;;;;5052731;28;20020;-64
2023/06/17 04:48:29;;;;;;;4.85;3.90;;;;;;;;;;5051642;28;20021;-64
2023/06/17 04:50:58;;;;;;;4.72;4.25;;;;;;;;;;5050013;28;20490;-64
2023/06/17 04:53:25;;;;;;;4.53;4.13;;;;;;;;;;5049644;28;20032;-64
2023/06/17 04:55:50;;;;;;;4.15;3.75;;;;;;;;;;5051201;28;20427;-63
2023/06/17 04:58:17;;;;;;;4.60;4.20;;;;;;;;;;5051132;28;20024;-67
2023/06/17 05:00:42;;;;;;;4.90;4.20;;;;;;;;;;5050587;28;20029;-65
2023/06/17 05:03:08;;;;;;;4.20;3.80;;;;;;;;;;5052729;28;20025;-63
2023/06/17 05:05:33;;;;;;;5.35;4.22;;;;;;;;;;5053487;28;20108;-63
2023/06/17 05:07:59;;;;;;;4.32;3.92;;;;;;;;;;5053481;28;20067;-63
2023/06/17 05:10:25;;;;;;;5.13;3.92;;;;;;;;;;5053435;28;20021;-66
2023/06/17 05:12:50;;;;;;;4.32;3.92;;;;;;;;;;5053187;28;20146;-64
2023/06/17 05:15:16;;;;;;;4.28;3.88;;;;;;;;;;5053275;28;20063;-64
2023/06/17 05:17:41;;;;;;;5.50;4.13;;;;;;;;;;5053184;28;20028;-66
2023/06/17 05:20:08;;;;;;;5.28;3.97;;;;;;;;;;5053161;28;20032;-65
2023/06/17 05:22:33;;;;;;;4.45;4.05;;;;;;;;;;5053174;28;20025;-65
2023/06/17 05:25:00;;;;;;;5.50;4.25;;;;;;;;;;5053069;28;20032;-66
2023/06/17 05:27:25;;;;;;;4.15;3.75;;;;;;;;;;5051890;28;20028;-66
2023/06/17 05:29:51;;;;;;;4.20;3.80;;;;;;;;;;5052988;28;20029;-64
2023/06/17 05:32:17;;;;;;;4.80;4.32;;;;;;;;;;5052708;28;20102;-64
2023/06/17 05:34:42;;;;;;;4.30;3.90;;;;;;;;;;5052746;28;20035;-66
2023/06/17 05:37:08;;;;;;;5.07;4.20;;;;;;;;;;5052918;28;20033;-66
2023/06/17 05:39:33;;;;;;;4.88;3.80;;;;;;;;;;5052715;28;20354;-64
2023/06/17 05:42:00;;;;;;;4.30;3.90;;;;;;;;;;5052957;28;20038;-63
2023/06/17 05:44:25;;;;;;;4.32;3.92;;;;;;;;;;5052000;28;20064;-64
2023/06/17 05:46:51;;;;;;;4.60;4.20;;;;;;;;;;5052176;28;20077;-66
2023/06/17 05:49:16;;;;;;;4.70;4.20;;;;;;;;;;5032998;28;20423;-64
2023/06/17 05:51:42;;;;;;;9.30;4.03;;;;;;;;;;5032968;28;20049;-66
2023/06/17 05:54:08;;;;;;;5.03;4.00;;;;;;;;;;5032600;28;20511;-64
2023/06/17 05:56:33;;;;;;;4.38;3.88;;;;;;;;;;5032741;28;20532;-67
2023/06/17 05:58:59;;;;;;;4.25;3.90;;;;;;;;;;5031274;28;20045;-64
2023/06/17 06:01:24;;;;;;;4.47;4.07;;;;;;;;;;5032592;28;20025;-63
2023/06/17 06:03:50;;;;;;;4.43;4.03;;;;;;;;;;5032424;28;20027;-66
2023/06/17 06:06:16;;;;;;;4.85;4.10;;;;;;;;;;5032746;28;20029;-64
2023/06/17 06:08:41;;;;;;;4.30;3.90;;;;;;;;;;5031298;28;20021;-65
2023/06/17 06:11:07;;;;;;;4.95;4.15;;;;;;;;;;5032383;28;20076;-64
2023/06/17 06:13:32;;;;;;;4.30;3.90;;;;;;;;;;5031907;28;20060;-64
2023/06/17 06:15:58;;;;;;;5.03;4.38;;;;;;;;;;5032416;28;20057;-67
2023/06/17 06:18:24;;;;;;;4.28;3.80;;;;;;;;;;5032317;28;20030;-64
2023/06/17 06:20:49;;;;;;;4.47;3.90;;;;;;;;;;5031091;28;20505;-66
2023/06/17 06:23:15;;;;;;;4.18;3.78;;;;;;;;;;5042561;28;20028;-65
2023/06/17 06:25:41;;;;;;;4.40;4.03;;;;;;;;;;5050974;28;20036;-66
2023/06/17 06:28:07;;;;;;;4.72;3.60;;;;;;;;;;5052157;28;20419;-64
2023/06/17 06:30:32;;;;;;;5.13;4.25;;;;;;;;;;5052134;28;20039;-66
2023/06/17 06:32:58;;;;;;;4.40;3.92;;;;;;;;;;5051856;28;20088;-64
2023/06/17 06:35:26;;;;;;;4.38;4.00;;;;;;;;;;5052088;28;20103;-64
2023/06/17 06:37:52;;;;;;;4.30;3.90;;;;;;;;;;5052307;28;20041;-65
2023/06/17 06:40:18;;;;;;;4.38;3.97;;;;;;;;;;5052207;28;20028;-64
2023/06/17 06:42:43;;;;;;;4.40;4.00;;;;;;;;;;5040777;28;20121;-65
2023/06/17 06:45:09;;;;;;;5.03;4.00;;;;;;;;;;5032182;28;20525;-66
2023/06/17 06:47:35;;;;;;;4.00;3.70;;;;;;;;;;5032436;28;20216;-64
2023/06/17 06:50:01;;;;;;;4.50;4.00;;;;;;;;;;5032171;28;20584;-64
2023/06/17 06:52:26;;;;;;;4.32;3.92;;;;;;;;;;5031774;28;20103;-65
2023/06/17 06:54:55;;;;;;;4.47;4.07;;;;;;;;;;5032138;28;20100;-64
2023/06/17 06:57:20;;;;;;;4.15;3.78;;;;;;;;;;5031984;28;20028;-65
2023/06/17 06:59:46;;;;;;;4.75;4.18;;;;;;;;;;5030741;28;20034;-64
2023/06/17 07:02:12;;;;;;;4.60;4.10;;;;;;;;;;5031925;28;20465;-66
2023/06/17 07:04:37;;;;;;;4.22;3.80;;;;;;;;;;5031851;28;20048;-65
2023/06/17 07:07:04;;;;;;;4.60;4.10;;;;;;;;;;5031879;28;20036;-64
2023/06/17 07:09:29;;;;;;;4.05;3.65;;;;;;;;;;5031930;28;20026;-65
2023/06/17 07:11:55;;;;;;;4.18;3.78;;;;;;;;;;5036012;28;20021;-65
2023/06/17 07:14:21;;;;;;;4.00;3.58;;;;;;;;;;5052123;28;20637;-65
2023/06/17 07:16:46;;;;;;;4.35;3.85;;;;;;;;;;5052036;28;20543;-65
2023/06/17 07:19:12;;;;;;;4.22;3.83;;;;;;;;;;5050480;28;20562;-67
2023/06/17 07:21:37;;;;;;;4.40;3.92;;;;;;;;;;5051738;28;20021;-66
2023/06/17 07:24:03;;;;;;;4.28;3.80;;;;;;;;;;5051844;28;20017;-66
2023/06/17 07:26:28;;;;;;;4.78;3.75;;;;;;;;;;5054702;28;20052;-64
2023/06/17 07:28:55;;;;;;;3.97;3.60;;;;;;;;;;5055439;28;20029;-66
2023/06/17 07:31:22;;;;;;;4.32;3.92;;;;;;;;;;5055058;28;20048;-65
2023/06/17 07:33:47;;;;;;;4.20;3.80;;;;;;;;;;5055185;28;20037;-65
2023/06/17 07:36:13;;;;;;;3.85;3.50;;;;;;;;;;5055240;28;20040;-65
2023/06/17 07:38:38;;;;;;;4.10;3.80;;;;;;;;;;5055222;28;20029;-64
2023/06/17 07:41:04;;;;;;;4.15;3.75;;;;;;;;;;5055166;28;20025;-64
2023/06/17 07:43:30;;;;;;;4.80;4.30;;;;;;;;;;5055114;28;20033;-64
2023/06/17 07:45:56;;;;;;;4.25;3.78;;;;;;;;;;5054962;28;20021;-66
2023/06/17 07:48:22;;;;;;;5.38;3.85;;;;;;;;;;5051397;28;20044;-64
2023/06/17 07:50:47;;;;;;;4.43;3.83;;;;;;;;;;5035016;28;20038;-63
2023/06/17 07:53:13;;;;;;;5.85;3.92;;;;;;;;;;5040685;28;20029;-68
2023/06/17 07:55:39;;;;;;;4.28;3.88;;;;;;;;;;5046083;28;20037;-63
2023/06/17 07:58:05;;;;;;;3.88;3.58;;;;;;;;;;5047435;28;20025;-65
2023/06/17 08:00:30;;;;;;;4.20;3.80;;;;;;;;;;5047338;28;20014;-70
2023/06/17 08:02:56;;;;;;;4.00;3.60;;;;;;;;;;5049763;28;20033;-63
2023/06/17 08:05:21;;;;;;;3.88;3.45;;;;;;;;;;5049914;28;20016;-69
2023/06/17 08:07:47;;;;;;;4.18;3.78;;;;;;;;;;5050362;28;20025;-64
2023/06/17 08:10:13;;;;;;;4.28;3.60;;;;;;;;;;5052424;28;20032;-66
2023/06/17 08:12:38;;;;;;;6.20;3.72;;;;;;;;;;5051683;28;20427;-67
2023/06/17 08:15:05;;;;;;;3.92;3.63;;;;;;;;;;5051022;28;20064;-69
2023/06/17 08:17:31;;;;;;;3.90;3.47;;;;;;;;;;5052134;28;20451;-71
2023/06/17 08:19:56;;;;;;;4.18;3.78;;;;;;;;;;5051158;28;20108;-63
2023/06/17 08:22:22;;;;;;;6.65;3.60;;;;;;;;;;5051794;28;20024;-68
2023/06/17 08:24:48;;;;;;;3.97;3.67;;;;;;;;;;5050035;28;20048;-68
2023/06/17 08:27:13;;;;;;;4.53;4.13;;;;;;;;;;5053361;28;20032;-69
2023/06/17 08:29:40;;;;;;;3.70;3.40;;;;;;;;;;5051616;28;20539;-70
2023/06/17 08:32:06;;;;;;;3.90;3.50;;;;;;;;;;5051005;28;20544;-64
2023/06/17 08:34:32;;;;;;;3.67;3.38;;;;;;;;;;5051505;28;20025;-63
2023/06/17 08:37:03;;;;;;;3.80;3.50;;;;;;;;;;5052080;28;20108;-68
2023/06/17 08:39:30;;;;;;;4.60;3.67;;;;;;;;;;5052908;28;20064;-68
2023/06/17 08:41:56;;;;;;;5.22;4.20;;;;;;;;;;5052767;28;20037;-67
2023/06/17 08:44:22;;;;;;;3.90;3.33;;;;;;;;;;5052904;28;20017;-68
2023/06/17 08:46:51;;;;;;;5.28;3.53;;;;;;;;;;5052617;28;20028;-68
2023/06/17 08:49:18;;;;;;;4.35;3.50;;;;;;;;;;5050345;28;20029;-67
2023/06/17 08:51:45;;;;;;;4.20;3.80;;;;;;;;;;5052147;28;20372;-67
2023/06/17 08:54:11;;;;;;;3.60;3.30;;;;;;;;;;5052446;28;20028;-70
2023/06/17 08:56:37;;;;;;;3.83;3.53;;;;;;;;;;5053390;28;20473;-66
2023/06/17 08:59:02;;;;;;;3.88;3.55;;;;;;;;;;5053716;28;20028;-67
2023/06/17 09:01:28;;;;;;;4.70;3.45;;;;;;;;;;5053828;28;20021;-64
2023/06/17 09:03:54;;;;;;;3.70;3.40;;;;;;;;;;5050173;28;20439;-68
2023/06/17 09:06:23;;;;;;;4.30;3.65;;;;;;;;;;5049414;28;20148;-68
2023/06/17 09:08:51;;;;;;;4.97;3.70;;;;;;;;;;5049910;28;20040;-70
2023/06/17 09:11:20;;;;;;;3.92;3.53;;;;;;;;;;5053201;28;20025;-69
2023/06/17 09:13:50;;;;;;;4.00;3.70;;;;;;;;;;5053279;28;20025;-66
2023/06/17 09:16:17;;;;;;;4.18;3.63;;;;;;;;;;5053475;28;20615;-69
2023/06/17 09:18:43;;;;;;;5.75;3.33;;;;;;;;;;5053544;28;20036;-70
2023/06/17 09:21:09;;;;;;;4.65;3.58;;;;;;;;;;5053031;28;20171;-67
2023/06/17 09:23:34;;;;;;;5.22;3.70;;;;;;;;;;5053198;28;20025;-67
2023/06/17 09:26:04;;;;;;;7.40;3.70;;;;;;;;;;5053132;28;20420;-68
2023/06/17 09:28:30;;;;;;;3.97;3.65;;;;;;;;;;5051458;28;20362;-68
2023/06/17 09:30:59;;;;;;;3.78;3.47;;;;;;;;;;5051349;28;20032;-68
2023/06/17 09:33:26;;;;;;;5.95;4.13;;;;;;;;;;5050667;28;20076;-69
2023/06/17 09:36:08;;;;;;;6.82;4.32;;;;;;;;;;5050791;28;20064;-69
2023/06/17 09:38:36;;;;;;;4.68;4.28;;;;;;;;;;5049742;28;20321;-70
2023/06/17 09:41:02;;;;;;;4.03;3.60;;;;;;;;;;5048377;28;20039;-66
2023/06/17 09:43:28;;;;;;;4.35;3.88;;;;;;;;;;5049909;28;20037;-70
2023/06/17 09:46:01;;;;;;;4.38;3.97;;;;;;;;;;5050290;28;20373;-69
2023/06/17 09:48:40;;;;;;;4.47;3.75;;;;;;;;;;5049973;28;20234;-68
2023/06/17 09:51:12;;;;;;;6.38;4.25;;;;;;;;;;5050407;28;20028;-69
2023/06/17 09:53:38;;;;;;;7.13;4.43;;;;;;;;;;5050946;28;20488;-69
2023/06/17 09:56:06;;;;;;;4.28;3.88;;;;;;;;;;5051088;28;20109;-66
2023/06/17 09:58:32;;;;;;;4.75;4.35;;;;;;;;;;5050900;28;20021;-70
2023/06/17 10:01:05;;;;;;;5.63;4.38;;;;;;;;;;5051066;28;20056;-70
2023/06/17 10:03:34;;;;;;;4.60;4.20;;;;;;;;;;5050831;28;20056;-69
2023/06/17 10:06:11;;;;;;;4.50;4.10;;;;;;;;;;5051066;28;20488;-65
2023/06/17 10:08:41;;;;;;;4.50;4.10;;;;;;;;;;5051011;28;20031;-67
2023/06/17 10:11:07;;;;;;;5.13;4.43;;;;;;;;;;5050605;28;20036;-67
2023/06/17 10:13:36;;;;;;;5.85;4.53;;;;;;;;;;5050495;28;20036;-68
2023/06/17 10:16:04;;;;;;;4.75;4.35;;;;;;;;;;5050636;28;20504;-66
2023/06/17 10:18:35;;;;;;;6.00;4.43;;;;;;;;;;5050623;28;20025;-65
2023/06/17 10:21:02;;;;;;;4.90;4.32;;;;;;;;;;5050581;28;20056;-66
2023/06/17 10:23:28;;;;;;;5.68;4.43;;;;;;;;;;5050509;28;20089;-65
2023/06/17 10:25:54;;;;;;;4.60;4.20;;;;;;;;;;5050543;28;20029;-70
2023/06/17 10:28:21;;;;;;;4.35;3.95;;;;;;;;;;5050529;28;20025;-69
2023/06/17 10:30:51;;;;;;;5.07;4.55;;;;;;;;;;5050583;28;20029;-69
2023/06/17 10:33:27;;;;;;;5.45;4.50;;;;;;;;;;5048786;28;20044;-66
2023/06/17 10:36:06;;;;;;;5.72;4.43;;;;;;;;;;5050484;28;20028;-65
2023/06/17 10:38:34;;;;;;;4.38;3.97;;;;;;;;;;5050684;28;20032;-63
2023/06/17 10:40:59;;;;;;;5.35;4.30;;;;;;;;;;5050389;28;20164;-65
2023/06/17 10:43:25;;;;;;;4.80;4.40;;;;;;;;;;5049279;28;20577;-65
2023/06/17 10:45:55;;;;;;;5.35;4.40;;;;;;;;;;5050407;28;20040;-67
2023/06/17 10:48:28;;;;;;;5.15;4.20;;;;;;;;;;5050571;28;20083;-67
2023/06/17 10:51:02;;;;;;;4.85;4.13;;;;;;;;;;5050486;28;20469;-64
2023/06/17 10:53:30;;;;;;;4.78;4.38;;;;;;;;;;5050205;28;20059;-68
2023/06/17 10:55:57;;;;;;;4.78;4.25;;;;;;;;;;5050229;28;20021;-68
2023/06/17 10:58:29;;;;;;;4.35;3.92;;;;;;;;;;5050430;28;20029;-64
2023/06/17 11:01:13;;;;;;;5.10;4.45;;;;;;;;;;5054217;28;20120;-67
2023/06/17 11:03:40;;;;;;;4.55;4.13;;;;;;;;;;5054334;28;20242;-67
2023/06/17 11:06:07;;;;;;;4.70;4.30;;;;;;;;;;5054127;28;20040;-67
2023/06/17 11:08:35;;;;;;;4.88;4.32;;;;;;;;;;5054110;28;20021;-68
2023/06/17 11:11:10;;;;;;;4.30;3.90;;;;;;;;;;5054115;28;20040;-65
2023/06/17 11:13:41;;;;;;;4.43;4.03;;;;;;;;;;5052571;28;20028;-68
2023/06/17 11:16:07;;;;;;;4.25;3.95;;;;;;;;;;5049657;28;20116;-67
2023/06/17 11:18:41;;;;;;;4.13;3.70;;;;;;;;;;5053821;28;20025;-63
2023/06/17 11:21:08;;;;;;;3.80;3.50;;;;;;;;;;5053538;28;20029;-68
2023/06/17 11:23:44;;;;;;;5.75;3.80;;;;;;;;;;5053859;28;20076;-70
2023/06/17 11:26:10;;;;;;;4.10;3.40;;;;;;;;;;5041585;28;20090;-70
2023/06/17 11:28:36;;;;;;;5.32;3.78;;;;;;;;;;5034105;28;20017;-69
2023/06/17 11:31:02;;;;;;;4.30;3.90;;;;;;;;;;5034080;28;20033;-64
2023/06/17 11:33:28;;;;;;;6.72;3.50;;;;;;;;;;5043208;28;20033;-68
2023/06/17 11:35:54;;;;;;;5.00;3.75;;;;;;;;;;5053182;28;20029;-66
2023/06/17 11:38:24;;;;;;;8.70;3.72;;;;;;;;;;5053313;28;20017;-63
2023/06/17 11:40:57;;;;;;;;;;;;;;;;;;5049666;28;20473;-62
2023/06/17 11:43:26;;;;;;;4.20;3.60;;;;;;;;;;5053161;28;19927;-62
2023/06/17 11:45:58;;;;;;;6.88;3.75;;;;;;;;;;5053785;28;20033;-66
2023/06/17 11:48:28;;;;;;;7.10;3.72;;;;;;;;;;5035377;28;20630;-67
2023/06/17 11:50:57;;;;;;;4.97;3.78;;;;;;;;;;5033478;28;20377;-66
2023/06/17 11:53:38;;;;;;;4.05;3.60;;;;;;;;;;5033394;28;20029;-66
2023/06/17 11:56:05;;;;;;;7.88;4.30;;;;;;;;;;5033479;28;20032;-65
2023/06/17 11:58:32;;;;;;;9.90;4.00;;;;;;;;;;5033622;28;20039;-68
2023/06/17 12:00:59;;;;;;;5.95;4.28;;;;;;;;;;5038087;28;20048;-70
2023/06/17 12:03:25;;;;;;;6.00;3.97;;;;;;;;;;5053466;28;20166;-65
2023/06/17 12:05:51;;;;;;;4.00;3.60;;;;;;;;;;5053228;28;20492;-70
2023/06/17 12:08:16;;;;;;;7.80;3.90;;;;;;;;;;5053099;28;20033;-70
2023/06/17 12:10:42;;;;;;;6.78;3.58;;;;;;;;;;5052626;28;20104;-64
2023/06/17 12:13:11;;;;;;;6.30;3.85;;;;;;;;;;5053314;28;20071;-69
2023/06/17 12:15:37;;;;;;;9.18;3.60;;;;;;;;;;5053325;28;20033;-69
2023/06/17 12:18:12;;;;;;;5.63;4.00;;;;;;;;;;5052995;28;20082;-65
2023/06/17 12:20:47;;;;;;;10.68;3.83;;;;;;;;;;5052996;28;20025;-71
2023/06/17 12:23:12;;;;;;;6.40;3.72;;;;;;;;;;5052883;28;20021;-68
2023/06/17 12:25:38;;;;;;;5.28;3.40;;;;;;;;;;5052692;28;20039;-68
2023/06/17 12:28:05;;;;;;;9.32;3.70;;;;;;;;;;5052574;28;20025;-68
2023/06/17 12:30:33;;;;;;;8.73;3.85;;;;;;;;;;5050277;28;20035;-68
2023/06/17 12:32:59;;;;;;;4.95;3.67;;;;;;;;;;5052518;28;20457;-67
2023/06/17 12:35:25;;;;;;;5.82;3.60;;;;;;;;;;5052332;28;20373;-71
2023/06/17 12:37:54;;;;;;;8.95;3.65;;;;;;;;;;5052454;28;20052;-69
2023/06/17 12:40:20;;;;;;;4.88;3.38;;;;;;;;;;5052278;28;20476;-66
2023/06/17 12:42:45;;;;;;;5.38;3.58;;;;;;;;;;5052304;28;20036;-68
2023/06/17 12:45:12;;;;;;;6.13;3.92;;;;;;;;;;5052890;28;20040;-70
2023/06/17 12:47:38;;;;;;;8.75;3.85;;;;;;;;;;5052365;28;20112;-66
2023/06/17 12:50:05;;;;;;;6.22;3.80;;;;;;;;;;5052302;28;20112;-65
2023/06/17 12:52:37;;;;;;;5.13;3.60;;;;;;;;;;5052159;28;20484;-62
2023/06/17 12:55:04;;;;;;;6.85;3.42;;;;;;;;;;5052022;28;20032;-65
2023/06/17 12:57:30;;;;;;;4.28;3.45;;;;;;;;;;5050214;28;20024;-69
2023/06/17 12:59:56;;;;;;;4.93;3.38;;;;;;;;;;5047619;28;20032;-70
2023/06/17 13:02:21;;;;;;;12.45;4.00;;;;;;;;;;5048718;28;20052;-71
2023/06/17 13:04:47;;;;;;;15.90;4.40;;;;;;;;;;5050901;28;20086;-64
2023/06/17 13:07:13;;;;;;;5.72;3.85;;;;;;;;;;5047696;28;20033;-64
2023/06/17 13:09:39;;;;;;;12.38;3.97;;;;;;;;;;5048911;28;20031;-65
2023/06/17 13:12:05;;;;;;;9.43;3.90;;;;;;;;;;5048741;28;20036;-71
2023/06/17 13:14:30;;;;;;;8.07;3.72;;;;;;;;;;5046869;28;20020;-65
2023/06/17 13:16:56;;;;;;;10.05;4.00;;;;;;;;;;5048006;28;20214;-65
2023/06/17 13:19:22;;;;;;;8.85;3.72;;;;;;;;;;5050161;28;20037;-68
2023/06/17 13:21:48;;;;;;;9.48;3.92;;;;;;;;;;5051340;28;20100;-65
2023/06/17 13:24:13;;;;;;;7.38;3.80;;;;;;;;;;5050725;28;20116;-71
2023/06/17 13:26:39;;;;;;;13.55;4.35;;;;;;;;;;5048760;28;20028;-66
2023/06/17 13:29:05;;;;;;;9.13;3.97;;;;;;;;;;5051295;28;20761;-66
2023/06/17 13:31:34;;;;;;;5.40;3.85;;;;;;;;;;5051237;28;20064;-65
2023/06/17 13:33:59;;;;;;;9.73;3.95;;;;;;;;;;5051296;28;20032;-66
2023/06/17 13:36:25;;;;;;;7.15;3.67;;;;;;;;;;5051769;28;20087;-67
2023/06/17 13:38:51;;;;;;;6.07;3.80;;;;;;;;;;5050935;28;20539;-67
2023/06/17 13:41:17;;;;;;;8.43;3.97;;;;;;;;;;5051169;28;20508;-67
2023/06/17 13:43:44;;;;;;;12.13;3.85;;;;;;;;;;5051414;28;20040;-67
2023/06/17 13:46:10;;;;;;;8.85;3.83;;;;;;;;;;5051187;28;20017;-66
2023/06/17 13:48:35;;;;;;;8.68;3.55;;;;;;;;;;5049365;28;20109;-66
2023/06/17 13:51:03;;;;;;;9.18;3.80;;;;;;;;;;5051398;28;20047;-68
2023/06/17 13:53:31;;;;;;;10.32;3.42;;;;;;;;;;5044741;28;20033;-65
2023/06/17 13:55:58;;;;;;;6.25;3.75;;;;;;;;;;5030124;28;20434;-64
2023/06/17 13:58:23;;;;;;;11.50;4.43;;;;;;;;;;5031291;28;20028;-68
2023/06/17 14:00:49;;;;;;;16.70;3.83;;;;;;;;;;5031032;28;20394;-65
2023/06/17 14:03:15;;;;;;;12.50;3.90;;;;;;;;;;5030974;28;20018;-66
2023/06/17 14:05:42;;;;;;;14.00;3.95;;;;;;;;;;5030909;28;20034;-67
2023/06/17 14:08:08;;;;;;;8.93;4.00;;;;;;;;;;5030765;28;20029;-66
2023/06/17 14:10:33;;;;;;;10.82;4.20;;;;;;;;;;5030845;28;20028;-66
2023/06/17 14:12:59;;;;;;;17.17;4.57;;;;;;;;;;5031032;28;20036;-66
2023/06/17 14:15:25;;;;;;;9.18;3.78;;;;;;;;;;5030881;28;20068;-65
2023/06/17 14:17:50;;;;;;;7.20;3.83;;;;;;;;;;5030750;28;20070;-66
2023/06/17 14:20:16;;;;;;;17.33;4.00;;;;;;;;;;5030766;28;20041;-67
2023/06/17 14:22:42;;;;;;;10.80;3.92;;;;;;;;;;5030712;28;20117;-68
2023/06/17 14:25:10;;;;;;;11.18;4.10;;;;;;;;;;5030674;28;20036;-67
2023/06/17 14:27:42;;;;;;;11.15;4.35;;;;;;;;;;5030634;28;20110;-66
2023/06/17 14:30:10;;;;;;;9.02;4.18;;;;;;;;;;5030750;28;20025;-67
2023/06/17 14:32:36;;;;;;;18.25;3.75;;;;;;;;;;5049421;28;20082;-67
2023/06/17 14:35:02;;;;;;;9.35;3.88;;;;;;;;;;5049610;28;20056;-67
2023/06/17 14:37:29;;;;;;;10.25;3.78;;;;;;;;;;5050424;28;20028;-66
2023/06/17 14:39:54;;;;;;;9.52;3.58;;;;;;;;;;5050594;28;20021;-67
2023/06/17 14:42:20;;;;;;;9.38;4.10;;;;;;;;;;5050455;28;20382;-66